Aurora, Illinois
Current Conditions -  °F | °C
As of 2:52 AM on Wednesday 28 Jan 2015 (Local Time) from KARR Reporting Station
Overcast Overcast  
Wind Chill: 21°   Ceiling: 12000
Heat Index: 21°   Visibility: 7mi
Dew Point: 16°   Wind: 0mph
Humidity: 81%   Direction: NA
Pressure: 30.27"   Gusts: NA
Location:  41.76°N, 88.31°W
Report Text: KARR 280852Z AUTO 00000KT 7SM OVC120 M06/M09 A3027 RMK AO2 SLP260 T10611089 56001
Loading
Personal Weather Stations






























Interactive Weather Map New forecast layout! Learn more

10-Day Weather Forecast

Advertisements
Track Severe Weather on mobile